sensor_id;sensor_type;location;lat;lon;timestamp;P1;durP1;ratioP1;P2;durP2;ratioP2
7985;SDS011;4038;42.612;23.066;2022-08-25T00:00:21;36.45;;;27.40;;
7985;SDS011;4038;42.612;23.066;2022-08-25T00:02:46;32.80;;;27.58;;
7985;SDS011;4038;42.612;23.066;2022-08-25T00:05:12;31.20;;;27.98;;
7985;SDS011;4038;42.612;23.066;2022-08-25T00:07:38;30.85;;;27.02;;
7985;SDS011;4038;42.612;23.066;2022-08-25T00:10:04;31.27;;;28.02;;
7985;SDS011;4038;42.612;23.066;2022-08-25T00:12:31;33.33;;;27.67;;
7985;SDS011;4038;42.612;23.066;2022-08-25T00:14:56;30.10;;;26.85;;
7985;SDS011;4038;42.612;23.066;2022-08-25T00:17:22;29.67;;;27.10;;
7985;SDS011;4038;42.612;23.066;2022-08-25T00:19:48;29.23;;;26.00;;
7985;SDS011;4038;42.612;23.066;2022-08-25T00:22:14;29.98;;;26.90;;
7985;SDS011;4038;42.612;23.066;2022-08-25T00:24:39;31.60;;;26.50;;
7985;SDS011;4038;42.612;23.066;2022-08-25T00:27:05;29.05;;;26.13;;
7985;SDS011;4038;42.612;23.066;2022-08-25T00:29:31;28.40;;;25.60;;
7985;SDS011;4038;42.612;23.066;2022-08-25T00:31:57;30.98;;;26.65;;
7985;SDS011;4038;42.612;23.066;2022-08-25T00:34:31;31.67;;;25.67;;
7985;SDS011;4038;42.612;23.066;2022-08-25T00:36:59;29.75;;;26.75;;
7985;SDS011;4038;42.612;23.066;2022-08-25T00:39:25;29.33;;;26.45;;
7985;SDS011;4038;42.612;23.066;2022-08-25T00:41:53;28.52;;;25.95;;
7985;SDS011;4038;42.612;23.066;2022-08-25T00:44:21;29.27;;;26.13;;
7985;SDS011;4038;42.612;23.066;2022-08-25T00:46:49;29.60;;;26.63;;
7985;SDS011;4038;42.612;23.066;2022-08-25T00:49:18;29.88;;;26.60;;
7985;SDS011;4038;42.612;23.066;2022-08-25T00:51:57;32.30;;;26.95;;
7985;SDS011;4038;42.612;23.066;2022-08-25T00:54:31;32.05;;;27.10;;
7985;SDS011;4038;42.612;23.066;2022-08-25T00:57:01;29.35;;;26.27;;
7985;SDS011;4038;42.612;23.066;2022-08-25T00:59:29;31.95;;;27.48;;
7985;SDS011;4038;42.612;23.066;2022-08-25T01:01:55;30.60;;;27.30;;
7985;SDS011;4038;42.612;23.066;2022-08-25T01:04:21;29.65;;;26.52;;
7985;SDS011;4038;42.612;23.066;2022-08-25T01:06:47;31.30;;;27.83;;
7985;SDS011;4038;42.612;23.066;2022-08-25T01:09:13;31.67;;;26.85;;
7985;SDS011;4038;42.612;23.066;2022-08-25T01:11:41;29.83;;;26.15;;
7985;SDS011;4038;42.612;23.066;2022-08-25T01:14:08;29.90;;;26.55;;
7985;SDS011;4038;42.612;23.066;2022-08-25T01:16:36;33.58;;;26.48;;
7985;SDS011;4038;42.612;23.066;2022-08-25T01:19:03;30.58;;;27.27;;
7985;SDS011;4038;42.612;23.066;2022-08-25T01:21:30;29.65;;;26.83;;
7985;SDS011;4038;42.612;23.066;2022-08-25T01:24:01;29.52;;;26.58;;
7985;SDS011;4038;42.612;23.066;2022-08-25T01:26:32;30.30;;;27.27;;
7985;SDS011;4038;42.612;23.066;2022-08-25T01:28:59;30.23;;;26.88;;
7985;SDS011;4038;42.612;23.066;2022-08-25T01:31:45;30.23;;;27.13;;
7985;SDS011;4038;42.612;23.066;2022-08-25T01:34:12;31.98;;;26.05;;
7985;SDS011;4038;42.612;23.066;2022-08-25T01:36:38;28.95;;;25.73;;
7985;SDS011;4038;42.612;23.066;2022-08-25T01:39:04;28.60;;;25.80;;
7985;SDS011;4038;42.612;23.066;2022-08-25T01:43:58;30.40;;;26.88;;
7985;SDS011;4038;42.612;23.066;2022-08-25T01:46:30;31.38;;;26.27;;
7985;SDS011;4038;42.612;23.066;2022-08-25T01:48:56;28.77;;;25.98;;
7985;SDS011;4038;42.612;23.066;2022-08-25T01:51:23;27.27;;;24.83;;
7985;SDS011;4038;42.612;23.066;2022-08-25T01:53:49;29.23;;;26.05;;
7985;SDS011;4038;42.612;23.066;2022-08-25T01:56:15;29.48;;;26.65;;
7985;SDS011;4038;42.612;23.066;2022-08-25T01:58:46;29.88;;;26.75;;
7985;SDS011;4038;42.612;23.066;2022-08-25T02:01:17;29.75;;;26.42;;
7985;SDS011;4038;42.612;23.066;2022-08-25T02:03:46;29.67;;;26.48;;
7985;SDS011;4038;42.612;23.066;2022-08-25T02:06:18;29.02;;;25.90;;
7985;SDS011;4038;42.612;23.066;2022-08-25T02:08:52;30.45;;;25.63;;
7985;SDS011;4038;42.612;23.066;2022-08-25T02:11:19;28.50;;;25.63;;
7985;SDS011;4038;42.612;23.066;2022-08-25T02:13:46;28.77;;;25.63;;
7985;SDS011;4038;42.612;23.066;2022-08-25T02:16:13;28.23;;;25.13;;
7985;SDS011;4038;42.612;23.066;2022-08-25T02:18:42;27.25;;;24.60;;
7985;SDS011;4038;42.612;23.066;2022-08-25T02:21:07;30.77;;;27.52;;
7985;SDS011;4038;42.612;23.066;2022-08-25T02:23:35;28.65;;;25.55;;
7985;SDS011;4038;42.612;23.066;2022-08-25T02:26:00;28.17;;;25.48;;
7985;SDS011;4038;42.612;23.066;2022-08-25T02:28:26;28.00;;;25.05;;
7985;SDS011;4038;42.612;23.066;2022-08-25T02:30:51;29.35;;;26.23;;
7985;SDS011;4038;42.612;23.066;2022-08-25T02:33:17;29.70;;;26.73;;
7985;SDS011;4038;42.612;23.066;2022-08-25T02:35:43;29.25;;;26.33;;
7985;SDS011;4038;42.612;23.066;2022-08-25T02:38:09;30.33;;;26.13;;
7985;SDS011;4038;42.612;23.066;2022-08-25T02:40:34;30.60;;;26.27;;
7985;SDS011;4038;42.612;23.066;2022-08-25T02:42:59;28.90;;;26.20;;
7985;SDS011;4038;42.612;23.066;2022-08-25T02:45:26;29.30;;;26.38;;
7985;SDS011;4038;42.612;23.066;2022-08-25T02:47:51;28.52;;;25.38;;
7985;SDS011;4038;42.612;23.066;2022-08-25T02:50:17;37.38;;;26.67;;
7985;SDS011;4038;42.612;23.066;2022-08-25T02:52:43;29.50;;;26.58;;
7985;SDS011;4038;42.612;23.066;2022-08-25T02:55:09;29.23;;;26.45;;
7985;SDS011;4038;42.612;23.066;2022-08-25T02:57:38;27.55;;;24.67;;
7985;SDS011;4038;42.612;23.066;2022-08-25T03:00:06;33.55;;;26.83;;
7985;SDS011;4038;42.612;23.066;2022-08-25T03:02:33;28.35;;;25.63;;
7985;SDS011;4038;42.612;23.066;2022-08-25T03:04:59;29.00;;;26.17;;
7985;SDS011;4038;42.612;23.066;2022-08-25T03:07:24;30.63;;;27.02;;
7985;SDS011;4038;42.612;23.066;2022-08-25T03:09:50;28.75;;;26.05;;
7985;SDS011;4038;42.612;23.066;2022-08-25T03:12:15;30.02;;;27.25;;
7985;SDS011;4038;42.612;23.066;2022-08-25T03:14:41;29.42;;;26.52;;
7985;SDS011;4038;42.612;23.066;2022-08-25T03:17:06;29.25;;;26.60;;
7985;SDS011;4038;42.612;23.066;2022-08-25T03:19:32;30.00;;;25.92;;
7985;SDS011;4038;42.612;23.066;2022-08-25T03:21:58;29.30;;;26.08;;
7985;SDS011;4038;42.612;23.066;2022-08-25T03:24:24;28.17;;;25.20;;
7985;SDS011;4038;42.612;23.066;2022-08-25T03:26:50;29.63;;;26.60;;
7985;SDS011;4038;42.612;23.066;2022-08-25T03:29:26;30.98;;;27.77;;
7985;SDS011;4038;42.612;23.066;2022-08-25T03:31:55;29.25;;;26.42;;
7985;SDS011;4038;42.612;23.066;2022-08-25T03:34:25;29.50;;;26.42;;
7985;SDS011;4038;42.612;23.066;2022-08-25T03:36:53;29.98;;;26.92;;
7985;SDS011;4038;42.612;23.066;2022-08-25T03:39:19;29.45;;;26.58;;
7985;SDS011;4038;42.612;23.066;2022-08-25T03:41:47;30.02;;;27.10;;
7985;SDS011;4038;42.612;23.066;2022-08-25T03:44:14;29.80;;;26.95;;
7985;SDS011;4038;42.612;23.066;2022-08-25T03:46:42;30.55;;;27.70;;
7985;SDS011;4038;42.612;23.066;2022-08-25T03:49:10;30.35;;;27.20;;
7985;SDS011;4038;42.612;23.066;2022-08-25T03:51:41;30.83;;;27.55;;
7985;SDS011;4038;42.612;23.066;2022-08-25T03:54:11;29.77;;;26.88;;
7985;SDS011;4038;42.612;23.066;2022-08-25T03:56:37;29.90;;;26.90;;
7985;SDS011;4038;42.612;23.066;2022-08-25T03:59:02;30.55;;;27.25;;
7985;SDS011;4038;42.612;23.066;2022-08-25T04:01:28;30.73;;;26.63;;
7985;SDS011;4038;42.612;23.066;2022-08-25T04:03:54;41.53;;;27.98;;
7985;SDS011;4038;42.612;23.066;2022-08-25T04:06:19;31.50;;;28.13;;
7985;SDS011;4038;42.612;23.066;2022-08-25T04:08:46;29.70;;;26.90;;
7985;SDS011;4038;42.612;23.066;2022-08-25T04:11:13;29.77;;;26.83;;
7985;SDS011;4038;42.612;23.066;2022-08-25T04:13:43;31.35;;;26.30;;
7985;SDS011;4038;42.612;23.066;2022-08-25T04:16:13;32.45;;;27.58;;
7985;SDS011;4038;42.612;23.066;2022-08-25T04:18:42;31.30;;;27.50;;
7985;SDS011;4038;42.612;23.066;2022-08-25T04:21:09;31.17;;;27.77;;
7985;SDS011;4038;42.612;23.066;2022-08-25T04:23:37;30.90;;;27.73;;
7985;SDS011;4038;42.612;23.066;2022-08-25T04:26:18;31.63;;;28.38;;
7985;SDS011;4038;42.612;23.066;2022-08-25T04:28:52;29.58;;;26.45;;
7985;SDS011;4038;42.612;23.066;2022-08-25T04:31:19;30.77;;;27.65;;
7985;SDS011;4038;42.612;23.066;2022-08-25T04:33:46;30.67;;;26.83;;
7985;SDS011;4038;42.612;23.066;2022-08-25T04:36:12;30.65;;;27.40;;
7985;SDS011;4038;42.612;23.066;2022-08-25T04:38:39;29.63;;;26.77;;
7985;SDS011;4038;42.612;23.066;2022-08-25T04:41:07;30.52;;;27.17;;
7985;SDS011;4038;42.612;23.066;2022-08-25T04:43:34;30.13;;;27.00;;
7985;SDS011;4038;42.612;23.066;2022-08-25T04:46:14;30.50;;;27.27;;
7985;SDS011;4038;42.612;23.066;2022-08-25T04:48:42;29.80;;;26.77;;
7985;SDS011;4038;42.612;23.066;2022-08-25T04:51:10;28.17;;;25.67;;
7985;SDS011;4038;42.612;23.066;2022-08-25T04:53:38;38.53;;;26.20;;
7985;SDS011;4038;42.612;23.066;2022-08-25T04:56:05;33.80;;;25.98;;
7985;SDS011;4038;42.612;23.066;2022-08-25T04:58:32;31.42;;;26.17;;
7985;SDS011;4038;42.612;23.066;2022-08-25T05:01:02;29.50;;;26.70;;
7985;SDS011;4038;42.612;23.066;2022-08-25T05:03:28;31.08;;;27.85;;
7985;SDS011;4038;42.612;23.066;2022-08-25T05:05:55;33.97;;;27.95;;
7985;SDS011;4038;42.612;23.066;2022-08-25T05:08:20;30.08;;;27.20;;
7985;SDS011;4038;42.612;23.066;2022-08-25T05:10:46;29.42;;;26.17;;
7985;SDS011;4038;42.612;23.066;2022-08-25T05:13:11;32.15;;;26.70;;
7985;SDS011;4038;42.612;23.066;2022-08-25T05:15:36;29.83;;;25.08;;
7985;SDS011;4038;42.612;23.066;2022-08-25T05:18:14;30.13;;;26.35;;
7985;SDS011;4038;42.612;23.066;2022-08-25T05:20:41;29.90;;;26.60;;
7985;SDS011;4038;42.612;23.066;2022-08-25T05:23:06;28.83;;;26.00;;
7985;SDS011;4038;42.612;23.066;2022-08-25T05:25:32;28.42;;;25.55;;
7985;SDS011;4038;42.612;23.066;2022-08-25T05:27:58;29.60;;;26.63;;
7985;SDS011;4038;42.612;23.066;2022-08-25T05:30:23;30.00;;;25.83;;
7985;SDS011;4038;42.612;23.066;2022-08-25T05:32:49;32.22;;;26.17;;
7985;SDS011;4038;42.612;23.066;2022-08-25T05:35:14;39.10;;;27.55;;
7985;SDS011;4038;42.612;23.066;2022-08-25T05:37:40;31.15;;;27.27;;
7985;SDS011;4038;42.612;23.066;2022-08-25T05:40:06;33.83;;;27.65;;
7985;SDS011;4038;42.612;23.066;2022-08-25T05:42:32;30.10;;;26.77;;
7985;SDS011;4038;42.612;23.066;2022-08-25T05:44:58;29.88;;;26.52;;
7985;SDS011;4038;42.612;23.066;2022-08-25T05:47:24;30.98;;;26.55;;
7985;SDS011;4038;42.612;23.066;2022-08-25T05:49:49;31.33;;;26.40;;
7985;SDS011;4038;42.612;23.066;2022-08-25T05:52:15;28.98;;;26.17;;
7985;SDS011;4038;42.612;23.066;2022-08-25T05:54:40;28.23;;;25.33;;
7985;SDS011;4038;42.612;23.066;2022-08-25T05:57:06;32.38;;;25.58;;
7985;SDS011;4038;42.612;23.066;2022-08-25T05:59:32;31.35;;;26.13;;
7985;SDS011;4038;42.612;23.066;2022-08-25T06:01:57;28.83;;;25.77;;
7985;SDS011;4038;42.612;23.066;2022-08-25T06:04:41;31.13;;;26.65;;
7985;SDS011;4038;42.612;23.066;2022-08-25T06:07:07;29.02;;;25.85;;
7985;SDS011;4038;42.612;23.066;2022-08-25T06:09:36;28.92;;;25.90;;
7985;SDS011;4038;42.612;23.066;2022-08-25T06:12:02;29.30;;;26.10;;
7985;SDS011;4038;42.612;23.066;2022-08-25T06:14:28;29.38;;;26.35;;
7985;SDS011;4038;42.612;23.066;2022-08-25T06:16:53;30.95;;;27.38;;
7985;SDS011;4038;42.612;23.066;2022-08-25T06:19:19;29.50;;;26.30;;
7985;SDS011;4038;42.612;23.066;2022-08-25T06:21:45;29.02;;;26.23;;
7985;SDS011;4038;42.612;23.066;2022-08-25T06:24:11;33.20;;;26.92;;
7985;SDS011;4038;42.612;23.066;2022-08-25T06:26:36;29.52;;;26.48;;
7985;SDS011;4038;42.612;23.066;2022-08-25T06:29:02;28.65;;;25.65;;
7985;SDS011;4038;42.612;23.066;2022-08-25T06:31:28;30.77;;;26.27;;
7985;SDS011;4038;42.612;23.066;2022-08-25T06:33:53;32.70;;;26.35;;
7985;SDS011;4038;42.612;23.066;2022-08-25T06:36:19;28.48;;;25.35;;
7985;SDS011;4038;42.612;23.066;2022-08-25T06:38:45;30.13;;;26.35;;
7985;SDS011;4038;42.612;23.066;2022-08-25T06:41:10;32.70;;;26.60;;
7985;SDS011;4038;42.612;23.066;2022-08-25T06:43:37;28.90;;;25.92;;
7985;SDS011;4038;42.612;23.066;2022-08-25T06:48:37;28.67;;;25.55;;
7985;SDS011;4038;42.612;23.066;2022-08-25T06:51:04;29.20;;;25.98;;
7985;SDS011;4038;42.612;23.066;2022-08-25T06:53:31;32.30;;;26.05;;
7985;SDS011;4038;42.612;23.066;2022-08-25T06:55:57;30.52;;;27.15;;
7985;SDS011;4038;42.612;23.066;2022-08-25T06:58:26;28.10;;;25.50;;
7985;SDS011;4038;42.612;23.066;2022-08-25T07:00:51;28.92;;;25.95;;
7985;SDS011;4038;42.612;23.066;2022-08-25T07:03:18;31.85;;;26.38;;
7985;SDS011;4038;42.612;23.066;2022-08-25T07:05:50;28.88;;;25.63;;
7985;SDS011;4038;42.612;23.066;2022-08-25T07:08:20;29.05;;;26.08;;
7985;SDS011;4038;42.612;23.066;2022-08-25T07:10:47;29.05;;;26.10;;
7985;SDS011;4038;42.612;23.066;2022-08-25T07:13:13;28.10;;;25.25;;
7985;SDS011;4038;42.612;23.066;2022-08-25T07:15:39;27.75;;;24.88;;
7985;SDS011;4038;42.612;23.066;2022-08-25T07:18:06;29.38;;;26.50;;
7985;SDS011;4038;42.612;23.066;2022-08-25T07:20:33;28.35;;;25.33;;
7985;SDS011;4038;42.612;23.066;2022-08-25T07:22:59;28.83;;;25.20;;
7985;SDS011;4038;42.612;23.066;2022-08-25T07:25:25;31.27;;;25.58;;
7985;SDS011;4038;42.612;23.066;2022-08-25T07:27:50;28.50;;;25.80;;
7985;SDS011;4038;42.612;23.066;2022-08-25T07:30:16;29.17;;;25.80;;
7985;SDS011;4038;42.612;23.066;2022-08-25T07:32:42;28.65;;;25.65;;
7985;SDS011;4038;42.612;23.066;2022-08-25T07:35:07;29.52;;;25.35;;
7985;SDS011;4038;42.612;23.066;2022-08-25T07:37:39;34.90;;;25.20;;
7985;SDS011;4038;42.612;23.066;2022-08-25T07:40:07;31.63;;;25.33;;
7985;SDS011;4038;42.612;23.066;2022-08-25T07:42:37;30.90;;;25.50;;
7985;SDS011;4038;42.612;23.066;2022-08-25T07:45:04;30.25;;;25.00;;
7985;SDS011;4038;42.612;23.066;2022-08-25T07:47:30;30.85;;;25.30;;
7985;SDS011;4038;42.612;23.066;2022-08-25T07:49:56;33.60;;;26.33;;
7985;SDS011;4038;42.612;23.066;2022-08-25T07:52:21;30.08;;;25.65;;
7985;SDS011;4038;42.612;23.066;2022-08-25T07:54:47;32.88;;;25.20;;
7985;SDS011;4038;42.612;23.066;2022-08-25T07:57:12;31.42;;;26.67;;
7985;SDS011;4038;42.612;23.066;2022-08-25T07:59:39;30.42;;;25.23;;
7985;SDS011;4038;42.612;23.066;2022-08-25T08:02:09;33.17;;;26.80;;
7985;SDS011;4038;42.612;23.066;2022-08-25T08:04:36;29.60;;;26.20;;
7985;SDS011;4038;42.612;23.066;2022-08-25T08:07:02;42.88;;;26.45;;
7985;SDS011;4038;42.612;23.066;2022-08-25T08:09:28;36.30;;;25.55;;
7985;SDS011;4038;42.612;23.066;2022-08-25T08:11:55;34.92;;;25.95;;
7985;SDS011;4038;42.612;23.066;2022-08-25T08:14:21;32.35;;;24.67;;
7985;SDS011;4038;42.612;23.066;2022-08-25T08:16:47;37.05;;;26.33;;
7985;SDS011;4038;42.612;23.066;2022-08-25T08:19:13;37.92;;;26.45;;
7985;SDS011;4038;42.612;23.066;2022-08-25T08:21:40;33.30;;;24.77;;
7985;SDS011;4038;42.612;23.066;2022-08-25T08:24:05;30.98;;;25.75;;
7985;SDS011;4038;42.612;23.066;2022-08-25T08:26:32;36.70;;;25.23;;
7985;SDS011;4038;42.612;23.066;2022-08-25T08:28:58;35.65;;;25.50;;
7985;SDS011;4038;42.612;23.066;2022-08-25T08:31:25;31.92;;;25.60;;
7985;SDS011;4038;42.612;23.066;2022-08-25T08:33:52;31.90;;;25.45;;
7985;SDS011;4038;42.612;23.066;2022-08-25T08:36:20;34.10;;;25.55;;
7985;SDS011;4038;42.612;23.066;2022-08-25T08:38:46;37.30;;;25.45;;
7985;SDS011;4038;42.612;23.066;2022-08-25T08:47:52;36.08;;;26.15;;
7985;SDS011;4038;42.612;23.066;2022-08-25T08:50:23;35.17;;;25.90;;
7985;SDS011;4038;42.612;23.066;2022-08-25T08:55:27;35.22;;;25.95;;
7985;SDS011;4038;42.612;23.066;2022-08-25T08:58:13;34.47;;;26.45;;
7985;SDS011;4038;42.612;23.066;2022-08-25T09:00:45;35.15;;;25.40;;
7985;SDS011;4038;42.612;23.066;2022-08-25T09:03:27;39.47;;;30.92;;
7985;SDS011;4038;42.612;23.066;2022-08-25T09:06:16;36.25;;;26.63;;
7985;SDS011;4038;42.612;23.066;2022-08-25T09:08:48;43.92;;;26.90;;
7985;SDS011;4038;42.612;23.066;2022-08-25T09:11:19;34.47;;;26.15;;
7985;SDS011;4038;42.612;23.066;2022-08-25T09:25:21;34.45;;;26.50;;
7985;SDS011;4038;42.612;23.066;2022-08-25T09:28:12;30.65;;;27.45;;
7985;SDS011;4038;42.612;23.066;2022-08-25T09:33:17;37.72;;;27.23;;
7985;SDS011;4038;42.612;23.066;2022-08-25T09:35:44;32.25;;;26.30;;
7985;SDS011;4038;42.612;23.066;2022-08-25T09:38:11;38.13;;;27.40;;
7985;SDS011;4038;42.612;23.066;2022-08-25T09:40:39;39.75;;;25.92;;
7985;SDS011;4038;42.612;23.066;2022-08-25T09:46:11;34.25;;;26.17;;
7985;SDS011;4038;42.612;23.066;2022-08-25T09:48:48;34.70;;;25.30;;
7985;SDS011;4038;42.612;23.066;2022-08-25T09:53:55;34.05;;;26.05;;
7985;SDS011;4038;42.612;23.066;2022-08-25T09:56:55;31.58;;;25.58;;
7985;SDS011;4038;42.612;23.066;2022-08-25T10:01:52;42.90;;;25.10;;
7985;SDS011;4038;42.612;23.066;2022-08-25T10:04:26;32.80;;;25.05;;
7985;SDS011;4038;42.612;23.066;2022-08-25T10:06:58;39.65;;;25.33;;
7985;SDS011;4038;42.612;23.066;2022-08-25T10:11:57;33.75;;;24.92;;
7985;SDS011;4038;42.612;23.066;2022-08-25T10:14:35;36.00;;;25.30;;
7985;SDS011;4038;42.612;23.066;2022-08-25T10:19:39;32.33;;;25.13;;
7985;SDS011;4038;42.612;23.066;2022-08-25T10:24:56;38.55;;;25.73;;
7985;SDS011;4038;42.612;23.066;2022-08-25T10:36:41;38.15;;;25.02;;
7985;SDS011;4038;42.612;23.066;2022-08-25T10:38:42;32.95;;;25.95;;
7985;SDS011;4038;42.612;23.066;2022-08-25T10:41:25;31.45;;;25.40;;
7985;SDS011;4038;42.612;23.066;2022-08-25T10:47:07;33.38;;;25.30;;
7985;SDS011;4038;42.612;23.066;2022-08-25T10:49:41;30.77;;;25.77;;
7985;SDS011;4038;42.612;23.066;2022-08-25T10:57:22;30.00;;;24.65;;
7985;SDS011;4038;42.612;23.066;2022-08-25T11:00:07;34.45;;;24.92;;
7985;SDS011;4038;42.612;23.066;2022-08-25T11:11:05;34.40;;;24.35;;
7985;SDS011;4038;42.612;23.066;2022-08-25T11:16:15;26.33;;;23.60;;
7985;SDS011;4038;42.612;23.066;2022-08-25T11:18:48;37.42;;;24.33;;
7985;SDS011;4038;42.612;23.066;2022-08-25T11:21:19;30.98;;;25.27;;
7985;SDS011;4038;42.612;23.066;2022-08-25T11:24:06;32.85;;;24.48;;
7985;SDS011;4038;42.612;23.066;2022-08-25T11:26:44;27.63;;;23.85;;
7985;SDS011;4038;42.612;23.066;2022-08-25T11:29:16;29.63;;;24.33;;
7985;SDS011;4038;42.612;23.066;2022-08-25T11:31:46;32.40;;;23.75;;
7985;SDS011;4038;42.612;23.066;2022-08-25T11:34:14;33.35;;;24.05;;
7985;SDS011;4038;42.612;23.066;2022-08-25T11:36:43;37.60;;;24.60;;
7985;SDS011;4038;42.612;23.066;2022-08-25T11:39:30;33.60;;;23.80;;
7985;SDS011;4038;42.612;23.066;2022-08-25T11:47:46;28.70;;;23.50;;
7985;SDS011;4038;42.612;23.066;2022-08-25T11:53:23;33.63;;;23.80;;
7985;SDS011;4038;42.612;23.066;2022-08-25T11:56:03;31.13;;;23.73;;
7985;SDS011;4038;42.612;23.066;2022-08-25T11:58:50;34.63;;;23.88;;
7985;SDS011;4038;42.612;23.066;2022-08-25T12:12:31;26.42;;;23.58;;
7985;SDS011;4038;42.612;23.066;2022-08-25T12:18:13;30.65;;;23.88;;
7985;SDS011;4038;42.612;23.066;2022-08-25T12:23:27;28.27;;;24.58;;
7985;SDS011;4038;42.612;23.066;2022-08-25T12:25:59;34.20;;;25.45;;
7985;SDS011;4038;42.612;23.066;2022-08-25T12:28:50;30.83;;;24.58;;
7985;SDS011;4038;42.612;23.066;2022-08-25T12:36:37;29.27;;;24.50;;
7985;SDS011;4038;42.612;23.066;2022-08-25T12:39:22;26.40;;;23.65;;
7985;SDS011;4038;42.612;23.066;2022-08-25T12:42:00;29.35;;;24.05;;
7985;SDS011;4038;42.612;23.066;2022-08-25T12:44:43;29.27;;;23.70;;
7985;SDS011;4038;42.612;23.066;2022-08-25T12:47:25;27.63;;;24.50;;
7985;SDS011;4038;42.612;23.066;2022-08-25T12:53:07;27.55;;;24.55;;
7985;SDS011;4038;42.612;23.066;2022-08-25T12:55:37;28.30;;;24.70;;
7985;SDS011;4038;42.612;23.066;2022-08-25T12:58:08;29.83;;;24.65;;
7985;SDS011;4038;42.612;23.066;2022-08-25T13:00:43;28.52;;;24.75;;
7985;SDS011;4038;42.612;23.066;2022-08-25T13:11:59;31.67;;;25.08;;
7985;SDS011;4038;42.612;23.066;2022-08-25T13:17:03;30.70;;;25.55;;
7985;SDS011;4038;42.612;23.066;2022-08-25T13:19:29;29.98;;;25.33;;
7985;SDS011;4038;42.612;23.066;2022-08-25T13:21:55;26.25;;;24.00;;
7985;SDS011;4038;42.612;23.066;2022-08-25T13:27:04;27.60;;;24.73;;
7985;SDS011;4038;42.612;23.066;2022-08-25T13:29:50;31.10;;;25.08;;
7985;SDS011;4038;42.612;23.066;2022-08-25T13:32:23;28.75;;;25.13;;
7985;SDS011;4038;42.612;23.066;2022-08-25T13:35:14;27.90;;;25.15;;
7985;SDS011;4038;42.612;23.066;2022-08-25T13:37:43;31.08;;;25.30;;
7985;SDS011;4038;42.612;23.066;2022-08-25T13:40:13;29.38;;;23.80;;
7985;SDS011;4038;42.612;23.066;2022-08-25T13:42:52;28.52;;;24.92;;
7985;SDS011;4038;42.612;23.066;2022-08-25T13:45:43;29.42;;;24.60;;
7985;SDS011;4038;42.612;23.066;2022-08-25T13:48:11;31.52;;;24.23;;
7985;SDS011;4038;42.612;23.066;2022-08-25T13:50:38;26.77;;;23.92;;
7985;SDS011;4038;42.612;23.066;2022-08-25T13:53:06;30.52;;;23.75;;
7985;SDS011;4038;42.612;23.066;2022-08-25T13:58:11;34.55;;;25.25;;
7985;SDS011;4038;42.612;23.066;2022-08-25T14:00:42;29.05;;;24.45;;
7985;SDS011;4038;42.612;23.066;2022-08-25T14:04:19;27.38;;;24.65;;
7985;SDS011;4038;42.612;23.066;2022-08-25T14:08:41;28.90;;;24.45;;
7985;SDS011;4038;42.612;23.066;2022-08-25T14:13:57;28.50;;;23.73;;
7985;SDS011;4038;42.612;23.066;2022-08-25T14:16:38;30.80;;;23.90;;
7985;SDS011;4038;42.612;23.066;2022-08-25T14:19:12;32.25;;;24.30;;
7985;SDS011;4038;42.612;23.066;2022-08-25T14:21:39;29.05;;;23.80;;
7985;SDS011;4038;42.612;23.066;2022-08-25T14:24:05;26.92;;;24.13;;
7985;SDS011;4038;42.612;23.066;2022-08-25T14:26:31;34.78;;;24.30;;
7985;SDS011;4038;42.612;23.066;2022-08-25T14:28:57;34.10;;;25.25;;
7985;SDS011;4038;42.612;23.066;2022-08-25T14:33:56;29.05;;;24.58;;
7985;SDS011;4038;42.612;23.066;2022-08-25T14:36:24;27.23;;;24.33;;
7985;SDS011;4038;42.612;23.066;2022-08-25T14:38:50;29.77;;;23.95;;
7985;SDS011;4038;42.612;23.066;2022-08-25T14:41:18;25.45;;;23.05;;
7985;SDS011;4038;42.612;23.066;2022-08-25T14:43:43;30.60;;;23.80;;
7985;SDS011;4038;42.612;23.066;2022-08-25T14:46:13;26.20;;;23.65;;
7985;SDS011;4038;42.612;23.066;2022-08-25T14:48:44;27.13;;;24.48;;
7985;SDS011;4038;42.612;23.066;2022-08-25T14:51:13;28.15;;;25.23;;
7985;SDS011;4038;42.612;23.066;2022-08-25T14:53:40;30.48;;;24.80;;
7985;SDS011;4038;42.612;23.066;2022-08-25T14:56:06;31.00;;;23.73;;
7985;SDS011;4038;42.612;23.066;2022-08-25T14:58:32;30.08;;;25.13;;
7985;SDS011;4038;42.612;23.066;2022-08-25T15:00:57;32.53;;;24.58;;
7985;SDS011;4038;42.612;23.066;2022-08-25T15:03:30;34.58;;;24.50;;
7985;SDS011;4038;42.612;23.066;2022-08-25T15:06:07;28.05;;;23.33;;
7985;SDS011;4038;42.612;23.066;2022-08-25T15:08:36;28.52;;;23.88;;
7985;SDS011;4038;42.612;23.066;2022-08-25T15:11:21;32.45;;;23.90;;
7985;SDS011;4038;42.612;23.066;2022-08-25T15:13:46;29.35;;;23.67;;
7985;SDS011;4038;42.612;23.066;2022-08-25T15:16:16;28.38;;;24.17;;
7985;SDS011;4038;42.612;23.066;2022-08-25T15:18:47;36.47;;;24.08;;
7985;SDS011;4038;42.612;23.066;2022-08-25T15:21:13;29.80;;;24.88;;
7985;SDS011;4038;42.612;23.066;2022-08-25T15:23:39;35.40;;;24.13;;
7985;SDS011;4038;42.612;23.066;2022-08-25T15:26:04;27.05;;;23.40;;
7985;SDS011;4038;42.612;23.066;2022-08-25T15:28:33;28.00;;;23.95;;
7985;SDS011;4038;42.612;23.066;2022-08-25T15:30:59;28.42;;;23.60;;
7985;SDS011;4038;42.612;23.066;2022-08-25T15:33:24;28.08;;;23.40;;
7985;SDS011;4038;42.612;23.066;2022-08-25T15:35:50;31.85;;;24.40;;
7985;SDS011;4038;42.612;23.066;2022-08-25T15:38:16;28.33;;;22.98;;
7985;SDS011;4038;42.612;23.066;2022-08-25T15:40:42;31.00;;;24.80;;
7985;SDS011;4038;42.612;23.066;2022-08-25T15:43:08;29.98;;;23.58;;
7985;SDS011;4038;42.612;23.066;2022-08-25T15:45:34;29.60;;;23.85;;
7985;SDS011;4038;42.612;23.066;2022-08-25T15:48:00;30.30;;;23.75;;
7985;SDS011;4038;42.612;23.066;2022-08-25T15:50:25;30.02;;;24.08;;
7985;SDS011;4038;42.612;23.066;2022-08-25T15:52:51;31.92;;;25.20;;
7985;SDS011;4038;42.612;23.066;2022-08-25T15:55:16;33.30;;;24.38;;
7985;SDS011;4038;42.612;23.066;2022-08-25T15:57:42;32.45;;;24.75;;
7985;SDS011;4038;42.612;23.066;2022-08-25T16:00:08;34.17;;;25.83;;
7985;SDS011;4038;42.612;23.066;2022-08-25T16:02:35;26.67;;;24.02;;
7985;SDS011;4038;42.612;23.066;2022-08-25T16:05:02;28.92;;;23.90;;
7985;SDS011;4038;42.612;23.066;2022-08-25T16:07:27;35.05;;;27.52;;
7985;SDS011;4038;42.612;23.066;2022-08-25T16:09:56;43.63;;;28.27;;
7985;SDS011;4038;42.612;23.066;2022-08-25T16:12:23;32.60;;;25.42;;
7985;SDS011;4038;42.612;23.066;2022-08-25T16:14:50;26.60;;;23.90;;
7985;SDS011;4038;42.612;23.066;2022-08-25T16:17:19;29.55;;;24.65;;
7985;SDS011;4038;42.612;23.066;2022-08-25T16:19:45;32.40;;;24.25;;
7985;SDS011;4038;42.612;23.066;2022-08-25T16:22:11;32.53;;;24.48;;
7985;SDS011;4038;42.612;23.066;2022-08-25T16:24:38;26.90;;;24.30;;
7985;SDS011;4038;42.612;23.066;2022-08-25T16:27:05;27.27;;;24.30;;
7985;SDS011;4038;42.612;23.066;2022-08-25T16:29:32;36.47;;;24.77;;
7985;SDS011;4038;42.612;23.066;2022-08-25T16:31:58;27.25;;;24.23;;
7985;SDS011;4038;42.612;23.066;2022-08-25T16:34:24;28.45;;;24.73;;
7985;SDS011;4038;42.612;23.066;2022-08-25T16:36:51;30.85;;;24.83;;
7985;SDS011;4038;42.612;23.066;2022-08-25T16:39:17;29.70;;;25.40;;
7985;SDS011;4038;42.612;23.066;2022-08-25T16:41:44;34.33;;;25.40;;
7985;SDS011;4038;42.612;23.066;2022-08-25T16:44:10;31.02;;;27.85;;
7985;SDS011;4038;42.612;23.066;2022-08-25T16:46:35;28.98;;;25.10;;
7985;SDS011;4038;42.612;23.066;2022-08-25T16:49:04;30.92;;;24.58;;
7985;SDS011;4038;42.612;23.066;2022-08-25T16:51:30;33.75;;;25.23;;
7985;SDS011;4038;42.612;23.066;2022-08-25T16:53:56;28.08;;;25.00;;